Time;durP1;ratioP1;P1;durP2;ratioP2;P2;SDS_P1;SDS_P2;PMS_P1;PMS_P2;Temp;Humidity;BMP_temperature;BMP_pressure;BME280_temperature;BME280_humidity;BME280_pressure;Samples;Min_cycle;Max_cycle;Signal;HPM_P1;HPM_P2
2021/12/19 00:00:18;;;;;;;37.42;18.50;;;5.00;99.90;;;;;;4953136;28;20042;-46
2021/12/19 00:10:53;;;;;;;34.33;17.73;;;4.90;99.90;;;;;;4952436;28;20050;-46
2021/12/19 00:13:19;;;;;;;39.55;20.45;;;5.00;99.90;;;;;;4952245;28;20019;-43
2021/12/19 00:15:45;;;;;;;34.88;18.85;;;5.00;99.90;;;;;;4953697;28;20130;-44
2021/12/19 00:18:10;;;;;;;38.75;18.25;;;5.10;99.90;;;;;;4953270;29;20128;-50
2021/12/19 00:20:36;;;;;;;36.08;18.35;;;5.10;99.90;;;;;;4953133;28;20107;-46
2021/12/19 00:23:02;;;;;;;31.70;17.25;;;5.00;99.90;;;;;;4953587;28;20023;-47
2021/12/19 00:25:27;;;;;;;31.48;17.55;;;5.00;99.90;;;;;;4953715;29;20051;-44
2021/12/19 00:27:53;;;;;;;34.97;17.50;;;5.10;99.90;;;;;;4952666;29;20031;-44
2021/12/19 00:30:18;;;;;;;30.80;16.17;;;5.00;99.90;;;;;;4953624;28;20098;-51
2021/12/19 00:32:44;;;;;;;31.13;16.15;;;5.00;99.90;;;;;;4954399;29;20439;-45
2021/12/19 00:35:09;;;;;;;30.95;15.98;;;5.00;99.90;;;;;;4954419;29;20047;-46
2021/12/19 00:37:35;;;;;;;30.95;17.70;;;5.00;99.90;;;;;;4953611;29;20099;-51
2021/12/19 00:40:00;;;;;;;35.42;18.20;;;5.00;99.90;;;;;;4954785;28;20518;-48
2021/12/19 00:42:34;;;;;;;37.00;18.13;;;5.00;99.90;;;;;;4953792;29;20019;-45
2021/12/19 00:45:03;;;;;;;32.80;17.48;;;5.00;99.90;;;;;;4953730;28;20492;-48
2021/12/19 00:47:29;;;;;;;30.65;17.83;;;5.00;99.90;;;;;;4953331;28;20035;-44
2021/12/19 00:49:55;;;;;;;33.67;17.95;;;5.10;99.90;;;;;;4953353;28;20530;-46
2021/12/19 00:52:21;;;;;;;30.48;17.45;;;5.30;99.90;;;;;;4953414;28;20027;-47
2021/12/19 00:54:47;;;;;;;61.20;36.00;;;5.20;99.90;;;;;;4953183;28;20027;-43
2021/12/19 00:57:12;;;;;;;106.22;60.15;;;5.20;99.90;;;;;;4953145;28;20031;-45
2021/12/19 00:59:38;;;;;;;51.15;27.73;;;5.20;99.90;;;;;;4953092;28;20024;-45
2021/12/19 01:02:03;;;;;;;28.92;17.17;;;5.20;99.90;;;;;;4953224;29;20032;-46
2021/12/19 01:04:29;;;;;;;28.27;16.13;;;5.20;99.90;;;;;;4953358;28;20170;-47
2021/12/19 01:06:58;;;;;;;28.75;15.45;;;5.20;99.90;;;;;;4953194;28;20046;-45
2021/12/19 01:09:23;;;;;;;35.03;17.80;;;5.10;99.90;;;;;;4952762;28;20027;-47
2021/12/19 01:11:49;;;;;;;30.00;15.73;;;5.20;99.90;;;;;;4951812;29;20481;-44
2021/12/19 01:14:16;;;;;;;30.00;16.83;;;5.20;99.90;;;;;;4953232;28;20479;-45
2021/12/19 01:16:42;;;;;;;34.72;18.77;;;5.20;99.90;;;;;;4953305;28;20082;-44
2021/12/19 01:19:07;;;;;;;31.33;16.70;;;5.20;99.90;;;;;;4952824;29;20027;-42
2021/12/19 01:21:33;;;;;;;34.58;18.02;;;5.20;99.90;;;;;;4953005;29;20069;-46
2021/12/19 01:23:59;;;;;;;31.73;17.73;;;5.20;99.90;;;;;;4956053;28;20054;-46
2021/12/19 01:26:24;;;;;;;35.50;18.05;;;5.20;99.90;;;;;;4956751;29;20106;-44
2021/12/19 01:28:50;;;;;;;34.20;19.15;;;5.10;99.90;;;;;;4955342;28;20032;-46
2021/12/19 01:31:15;;;;;;;36.00;19.20;;;5.10;99.90;;;;;;4956250;28;20098;-43
2021/12/19 01:33:41;;;;;;;34.38;17.95;;;5.10;99.90;;;;;;4956631;29;20031;-48
2021/12/19 01:36:07;;;;;;;36.92;17.55;;;5.10;99.90;;;;;;4957270;28;20488;-44
2021/12/19 01:38:33;;;;;;;37.35;18.52;;;5.10;99.90;;;;;;4956526;29;20554;-46
2021/12/19 01:40:59;;;;;;;35.80;17.92;;;5.00;99.90;;;;;;4956041;28;20031;-44
2021/12/19 01:43:25;;;;;;;32.92;18.90;;;5.00;99.90;;;;;;4956390;28;20037;-44
2021/12/19 01:45:53;;;;;;;36.42;18.33;;;5.00;99.90;;;;;;4956384;28;20038;-49
2021/12/19 01:48:19;;;;;;;37.10;18.85;;;5.10;99.90;;;;;;4956324;28;20106;-46
2021/12/19 01:50:45;;;;;;;34.10;18.65;;;5.10;99.90;;;;;;4955848;28;20031;-46
2021/12/19 01:53:12;;;;;;;40.85;20.30;;;5.10;99.90;;;;;;4956214;28;20118;-49
2021/12/19 01:55:39;;;;;;;39.25;19.92;;;5.20;99.90;;;;;;4956292;28;20377;-47
2021/12/19 01:58:05;;;;;;;36.25;18.13;;;5.20;99.90;;;;;;4956173;28;20015;-44
2021/12/19 02:00:39;;;;;;;33.22;18.00;;;5.30;99.90;;;;;;4955755;28;20379;-45
2021/12/19 02:03:09;;;;;;;36.78;19.55;;;5.20;99.90;;;;;;4956080;28;20022;-45
2021/12/19 02:05:35;;;;;;;38.25;19.02;;;5.30;99.90;;;;;;4955975;28;20034;-45
2021/12/19 02:08:01;;;;;;;37.22;18.63;;;5.20;99.90;;;;;;4956173;28;20093;-43
2021/12/19 02:10:29;;;;;;;38.25;20.20;;;5.30;99.90;;;;;;4955488;28;20499;-44
2021/12/19 02:12:56;;;;;;;37.42;18.70;;;5.30;99.90;;;;;;4955717;28;20037;-44
2021/12/19 02:15:24;;;;;;;31.63;17.48;;;5.20;99.90;;;;;;4955813;28;20023;-44
2021/12/19 02:17:52;;;;;;;35.25;18.95;;;5.20;99.90;;;;;;4955576;28;20077;-48
2021/12/19 02:20:18;;;;;;;36.47;18.45;;;5.20;99.90;;;;;;4955301;28;20497;-45
2021/12/19 02:22:44;;;;;;;35.75;18.70;;;5.20;99.90;;;;;;4955657;28;20027;-47
2021/12/19 02:25:10;;;;;;;38.92;21.10;;;5.20;99.90;;;;;;4955584;28;20031;-47
2021/12/19 02:27:36;;;;;;;38.33;18.67;;;5.20;99.90;;;;;;4955567;29;20050;-47
2021/12/19 02:30:04;;;;;;;44.38;21.95;;;5.20;99.90;;;;;;4953430;28;20402;-47
2021/12/19 02:32:31;;;;;;;41.83;19.85;;;5.20;99.90;;;;;;4955562;28;20038;-44
2021/12/19 02:35:00;;;;;;;37.33;20.70;;;5.20;99.90;;;;;;4954632;28;20031;-48
2021/12/19 02:50:32;;;;;;;39.65;19.50;;;5.20;99.90;;;;;;4955127;29;20094;-44
2021/12/19 02:52:59;;;;;;;36.20;19.30;;;5.30;99.90;;;;;;4954912;28;20035;-43
2021/12/19 02:55:24;;;;;;;42.97;22.08;;;5.30;99.90;;;;;;4954962;28;20395;-46
2021/12/19 02:57:50;;;;;;;41.10;20.02;;;5.40;99.90;;;;;;4955063;28;20030;-47
2021/12/19 03:00:20;;;;;;;35.88;19.80;;;5.40;99.90;;;;;;4954683;28;20023;-44
2021/12/19 03:02:46;;;;;;;35.67;18.73;;;5.40;99.90;;;;;;4954969;28;20023;-46
2021/12/19 03:05:11;;;;;;;37.45;18.98;;;5.40;99.90;;;;;;4954788;28;20041;-45
2021/12/19 03:07:41;;;;;;;41.33;19.30;;;5.40;99.90;;;;;;4954765;28;20027;-49
2021/12/19 03:10:57;;;;;;;37.80;19.95;;;5.30;99.90;;;;;;4954132;28;20571;-45
2021/12/19 03:18:25;;;;;;;40.03;18.83;;;5.40;99.90;;;;;;4954942;29;20083;-49
2021/12/19 03:20:51;;;;;;;41.00;19.98;;;5.40;99.90;;;;;;4954242;28;20024;-46
2021/12/19 03:23:16;;;;;;;37.50;18.90;;;5.40;99.90;;;;;;4954404;29;20047;-49
2021/12/19 03:25:42;;;;;;;36.33;18.95;;;5.40;99.90;;;;;;4954380;28;20058;-44
2021/12/19 03:28:10;;;;;;;39.15;19.25;;;5.40;99.90;;;;;;4953827;29;20038;-47
2021/12/19 03:30:37;;;;;;;33.88;18.80;;;5.30;99.90;;;;;;4953890;28;20036;-44
2021/12/19 03:33:03;;;;;;;37.20;19.25;;;5.30;99.90;;;;;;4954250;28;20086;-46
2021/12/19 03:35:30;;;;;;;35.72;18.77;;;5.30;99.90;;;;;;4954166;28;20039;-46
2021/12/19 03:37:57;;;;;;;37.08;19.08;;;5.30;99.90;;;;;;4954294;28;20047;-46
2021/12/19 03:40:24;;;;;;;33.22;18.00;;;5.30;99.90;;;;;;4952465;28;20031;-48
2021/12/19 03:42:52;;;;;;;31.58;17.15;;;5.20;99.90;;;;;;4954097;28;20075;-46
2021/12/19 03:45:21;;;;;;;41.45;19.67;;;5.20;99.90;;;;;;4954075;28;20403;-43
2021/12/19 03:47:48;;;;;;;36.80;18.50;;;5.20;99.90;;;;;;4953945;28;20035;-44
2021/12/19 03:50:19;;;;;;;31.58;18.17;;;5.20;99.90;;;;;;4953748;28;20118;-48
2021/12/19 03:52:45;;;;;;;31.98;18.17;;;5.20;99.90;;;;;;4954078;28;20035;-45
2021/12/19 03:55:11;;;;;;;35.72;17.40;;;5.20;99.90;;;;;;4954090;28;20030;-47
2021/12/19 03:57:37;;;;;;;30.70;17.02;;;5.20;99.90;;;;;;4953870;28;20034;-44
2021/12/19 04:00:06;;;;;;;37.92;18.90;;;5.40;99.90;;;;;;4953589;29;20027;-44
2021/12/19 04:02:31;;;;;;;33.65;17.33;;;5.40;99.90;;;;;;4953768;29;20023;-45
2021/12/19 04:04:58;;;;;;;36.03;17.95;;;5.50;99.90;;;;;;4954247;28;20264;-43
2021/12/19 04:07:26;;;;;;;32.17;17.45;;;5.50;99.90;;;;;;4952883;29;20062;-47
2021/12/19 04:09:51;;;;;;;30.60;16.60;;;5.60;99.90;;;;;;4953535;28;20027;-45
2021/12/19 04:12:18;;;;;;;30.08;17.45;;;5.50;99.90;;;;;;4953621;28;20054;-43
2021/12/19 04:14:44;;;;;;;34.67;17.17;;;5.50;99.90;;;;;;4953698;28;20207;-45
2021/12/19 04:17:10;;;;;;;28.33;15.90;;;5.60;99.90;;;;;;4952503;28;20030;-44
2021/12/19 04:19:36;;;;;;;30.52;15.98;;;5.50;99.90;;;;;;4953295;28;20380;-44
2021/12/19 04:22:02;;;;;;;34.38;18.00;;;5.40;99.90;;;;;;4953471;28;20030;-44
2021/12/19 04:24:28;;;;;;;39.00;18.00;;;5.40;99.90;;;;;;4953615;28;20026;-44
2021/12/19 04:26:54;;;;;;;32.00;16.27;;;5.40;99.90;;;;;;4953619;29;20023;-44
2021/12/19 04:29:20;;;;;;;29.45;16.60;;;5.40;99.90;;;;;;4952801;28;20034;-46
2021/12/19 04:31:47;;;;;;;27.83;15.88;;;5.30;99.90;;;;;;4953876;28;20023;-44
2021/12/19 04:34:13;;;;;;;29.75;16.95;;;5.30;99.90;;;;;;4960672;28;20055;-50
2021/12/19 04:36:40;;;;;;;26.02;15.07;;;5.30;99.90;;;;;;4961943;28;20047;-51
2021/12/19 04:39:37;;;;;;;30.48;16.08;;;5.40;99.90;;;;;;4961304;28;20019;-52
2021/12/19 04:53:09;;;;;;;31.23;17.35;;;5.50;99.90;;;;;;4953508;29;20030;-43
2021/12/19 04:57:51;;;;;;;30.90;16.92;;;5.40;99.90;;;;;;4955360;28;20463;-45
2021/12/19 05:00:22;;;;;;;26.45;14.13;;;5.40;99.90;;;;;;4957751;28;20111;-42
2021/12/19 05:05:51;;;;;;;22.48;13.48;;;5.40;99.90;;;;;;4958192;29;20074;-44
2021/12/19 05:16:29;;;;;;;17.98;12.20;;;5.50;99.90;;;;;;4957039;29;20050;-46
2021/12/19 05:19:02;;;;;;;20.75;11.73;;;5.50;99.90;;;;;;4957005;28;20024;-45
2021/12/19 05:21:29;;;;;;;18.80;13.10;;;5.60;99.90;;;;;;4957415;28;20019;-45
2021/12/19 05:26:23;;;;;;;14.45;10.80;;;5.70;99.90;;;;;;4959087;28;20406;-46
2021/12/19 05:28:49;;;;;;;15.63;11.48;;;5.80;99.90;;;;;;4957607;28;20039;-46
2021/12/19 05:31:15;;;;;;;15.40;11.38;;;5.70;99.90;;;;;;4957402;29;20027;-44
2021/12/19 05:33:41;;;;;;;13.07;10.63;;;5.60;99.90;;;;;;4956779;28;20475;-45
2021/12/19 05:44:09;;;;;;;14.95;11.25;;;5.60;99.90;;;;;;4956667;28;20038;-44
2021/12/19 05:45:11;;;;;;;14.18;10.95;;;5.70;99.90;;;;;;4956998;28;20027;-48
2021/12/19 05:46:56;;;;;;;16.02;11.40;;;5.70;99.90;;;;;;4956829;28;20066;-48
2021/12/19 05:49:22;;;;;;;16.48;11.93;;;5.70;99.90;;;;;;4956342;28;20058;-45
2021/12/19 05:51:47;;;;;;;16.13;11.98;;;5.80;99.90;;;;;;4956780;29;20491;-46
2021/12/19 05:54:13;;;;;;;15.27;11.48;;;5.80;99.90;;;;;;4956677;29;20035;-43
2021/12/19 05:56:39;;;;;;;16.95;11.65;;;5.90;99.90;;;;;;4956638;28;20106;-44
2021/12/19 05:59:06;;;;;;;14.38;11.20;;;5.90;99.90;;;;;;4956632;28;20135;-43
2021/12/19 06:01:32;;;;;;;16.42;12.25;;;6.00;99.90;;;;;;4956318;28;20475;-44
2021/12/19 06:03:58;;;;;;;16.27;11.55;;;5.90;99.90;;;;;;4956577;28;20027;-47
2021/12/19 06:06:26;;;;;;;14.52;10.57;;;5.90;99.90;;;;;;4956668;28;20027;-46
2021/12/19 06:08:52;;;;;;;15.80;11.23;;;5.80;99.90;;;;;;4955385;28;20047;-46
2021/12/19 06:11:18;;;;;;;14.07;10.93;;;5.80;99.90;;;;;;4954852;28;20031;-48
2021/12/19 06:13:43;;;;;;;13.70;10.88;;;5.90;99.90;;;;;;4954572;29;20514;-46
2021/12/19 06:16:09;;;;;;;17.77;11.43;;;5.80;99.90;;;;;;4954968;28;20111;-45
2021/12/19 06:18:35;;;;;;;15.45;11.35;;;5.80;99.90;;;;;;4954787;28;20035;-48
2021/12/19 06:21:00;;;;;;;14.20;10.65;;;5.80;99.90;;;;;;4954375;29;20066;-45
2021/12/19 06:23:26;;;;;;;15.27;11.63;;;5.90;99.90;;;;;;4954633;28;20027;-43
2021/12/19 06:25:53;;;;;;;14.65;10.77;;;5.80;99.90;;;;;;4954826;29;20427;-44
2021/12/19 06:28:19;;;;;;;16.42;10.65;;;5.80;99.90;;;;;;4954224;28;20023;-49
2021/12/19 06:30:46;;;;;;;16.48;11.48;;;5.80;99.90;;;;;;4954132;29;20039;-50
2021/12/19 06:33:12;;;;;;;16.65;10.95;;;5.80;99.90;;;;;;4954464;28;20027;-45
2021/12/19 06:35:38;;;;;;;16.50;10.95;;;5.70;99.90;;;;;;4954340;28;20495;-48
2021/12/19 06:38:03;;;;;;;16.08;11.32;;;5.70;99.90;;;;;;4954461;28;20038;-46
2021/12/19 06:40:29;;;;;;;19.52;12.68;;;5.60;99.90;;;;;;4955263;28;20299;-47
2021/12/19 06:42:55;;;;;;;17.60;11.32;;;5.80;99.90;;;;;;4954202;28;20027;-49
2021/12/19 06:45:21;;;;;;;16.13;12.38;;;5.70;99.90;;;;;;4954242;28;20057;-49
2021/12/19 06:47:47;;;;;;;17.08;11.27;;;5.80;99.90;;;;;;4954113;28;20035;-44
2021/12/19 06:50:15;;;;;;;19.27;11.82;;;5.80;99.90;;;;;;4953658;28;20035;-46
2021/12/19 06:52:42;;;;;;;21.40;12.70;;;5.80;99.90;;;;;;4954071;28;20086;-48
2021/12/19 06:55:10;;;;;;;16.95;12.10;;;5.80;99.90;;;;;;4954287;28;20463;-46
2021/12/19 06:57:36;;;;;;;16.45;11.95;;;5.80;99.90;;;;;;4954090;28;20443;-46
2021/12/19 07:00:05;;;;;;;20.60;12.13;;;5.70;99.90;;;;;;4953868;29;20074;-45
2021/12/19 07:02:31;;;;;;;20.27;12.40;;;5.70;99.90;;;;;;4953964;28;20121;-43
2021/12/19 07:04:56;;;;;;;16.65;12.68;;;5.70;99.90;;;;;;4953978;28;20059;-48
2021/12/19 07:07:22;;;;;;;18.38;12.93;;;5.80;99.90;;;;;;4953945;29;20023;-45
2021/12/19 07:09:48;;;;;;;20.00;12.40;;;5.70;99.90;;;;;;4920106;28;996178;-46
2021/12/19 07:12:13;;;;;;;15.20;11.40;;;5.70;99.90;;;;;;4955021;29;20270;-46
2021/12/19 07:14:39;;;;;;;15.88;12.35;;;5.70;99.90;;;;;;4954554;28;20479;-48
2021/12/19 07:17:05;;;;;;;17.65;11.85;;;5.70;99.90;;;;;;4954534;29;20035;-49
2021/12/19 07:19:30;;;;;;;16.73;11.57;;;5.60;99.90;;;;;;4954342;29;20019;-47
2021/12/19 07:21:56;;;;;;;17.17;12.65;;;5.70;99.90;;;;;;4953915;28;20027;-47
2021/12/19 07:24:21;;;;;;;19.05;12.20;;;5.80;99.90;;;;;;4954210;29;20102;-47
2021/12/19 07:26:47;;;;;;;18.00;12.30;;;5.90;99.90;;;;;;4954345;29;20031;-51
2021/12/19 07:29:12;;;;;;;16.77;11.45;;;5.80;99.90;;;;;;4953472;29;20077;-48
2021/12/19 07:31:38;;;;;;;16.73;11.98;;;5.70;99.90;;;;;;4954337;29;20070;-49
2021/12/19 07:34:06;;;;;;;20.45;13.00;;;5.70;99.90;;;;;;4954025;28;20515;-44
2021/12/19 07:36:49;;;;;;;18.98;12.40;;;5.80;99.90;;;;;;4954428;28;20020;-51
2021/12/19 07:39:27;;;;;;;17.95;12.93;;;5.80;99.90;;;;;;4952922;28;20027;-44
2021/12/19 07:41:53;;;;;;;17.58;12.52;;;5.80;99.90;;;;;;4954358;28;20025;-46
2021/12/19 07:44:19;;;;;;;18.45;11.55;;;5.80;99.90;;;;;;4954734;28;20063;-51
2021/12/19 07:46:45;;;;;;;17.75;12.55;;;5.90;99.90;;;;;;4954020;29;20094;-44
2021/12/19 07:49:11;;;;;;;20.33;13.18;;;5.80;99.90;;;;;;4953695;28;20019;-44
2021/12/19 07:51:36;;;;;;;20.75;12.82;;;5.80;99.90;;;;;;4954177;28;20020;-48
2021/12/19 07:54:02;;;;;;;20.40;13.05;;;5.80;99.90;;;;;;4954319;29;20042;-43
2021/12/19 07:56:28;;;;;;;18.98;13.10;;;5.80;99.90;;;;;;4951244;28;20031;-45
2021/12/19 07:58:54;;;;;;;20.00;13.30;;;5.80;99.90;;;;;;4957600;28;20074;-46
2021/12/19 08:01:19;;;;;;;20.95;13.30;;;5.70;99.90;;;;;;4952524;28;20510;-49
2021/12/19 08:03:45;;;;;;;23.50;14.15;;;5.90;99.90;;;;;;4967345;28;20563;-50
2021/12/19 08:06:11;;;;;;;21.17;13.23;;;6.00;99.90;;;;;;4971610;28;20045;-45
2021/12/19 08:08:36;;;;;;;23.25;14.18;;;5.90;99.90;;;;;;4958165;28;20113;-49
2021/12/19 08:13:47;;;;;;;25.37;13.70;;;6.00;99.90;;;;;;4949291;29;20144;-50
2021/12/19 08:16:13;;;;;;;21.02;12.80;;;6.00;99.90;;;;;;4952491;28;20366;-49
2021/12/19 08:18:39;;;;;;;26.75;14.25;;;6.00;99.90;;;;;;4953032;28;20435;-50
2021/12/19 08:21:04;;;;;;;24.05;13.05;;;6.00;99.90;;;;;;4943510;28;20027;-43
2021/12/19 08:23:30;;;;;;;19.20;13.32;;;6.10;99.90;;;;;;4934055;29;20087;-44
2021/12/19 08:25:56;;;;;;;24.65;13.48;;;6.10;99.90;;;;;;4956856;28;20106;-56
2021/12/19 08:28:21;;;;;;;23.35;14.32;;;6.10;99.90;;;;;;4960594;28;20038;-59
2021/12/19 08:30:47;;;;;;;23.27;13.82;;;6.10;99.90;;;;;;4952196;28;20483;-59
2021/12/19 08:33:12;;;;;;;23.17;13.50;;;6.10;99.90;;;;;;4952124;28;20122;-49
2021/12/19 08:35:38;;;;;;;18.52;12.80;;;6.00;99.90;;;;;;4952428;28;20054;-44
2021/12/19 08:38:04;;;;;;;21.73;13.63;;;6.20;99.90;;;;;;4952310;29;20042;-48
2021/12/19 08:40:31;;;;;;;20.75;14.02;;;6.20;99.90;;;;;;4951538;28;20043;-48
2021/12/19 08:42:57;;;;;;;21.33;12.65;;;6.20;99.90;;;;;;4952110;28;20019;-50
2021/12/19 08:45:24;;;;;;;20.95;13.73;;;6.20;99.90;;;;;;4952720;28;20079;-48
2021/12/19 08:47:50;;;;;;;24.45;15.85;;;6.30;99.90;;;;;;4952195;28;20043;-46
2021/12/19 08:50:16;;;;;;;19.85;12.82;;;6.30;99.90;;;;;;4951258;28;20106;-46
2021/12/19 08:52:42;;;;;;;22.20;14.25;;;6.30;99.90;;;;;;4951793;28;20039;-46
2021/12/19 08:55:09;;;;;;;25.70;14.23;;;6.30;99.90;;;;;;4952072;28;20023;-49
2021/12/19 08:57:35;;;;;;;22.85;12.38;;;6.30;99.90;;;;;;4951345;28;20110;-50
2021/12/19 09:00:03;;;;;;;20.30;12.95;;;6.30;99.90;;;;;;4951102;29;20114;-58
2021/12/19 09:02:28;;;;;;;25.45;13.77;;;6.20;99.90;;;;;;4944905;29;20019;-49
2021/12/19 09:04:54;;;;;;;23.23;13.18;;;6.30;99.90;;;;;;4952295;29;20352;-48
2021/12/19 09:07:19;;;;;;;28.35;13.90;;;6.30;99.90;;;;;;4951213;28;20074;-49
2021/12/19 09:09:45;;;;;;;23.65;14.05;;;6.30;99.90;;;;;;4950487;28;20043;-44
2021/12/19 09:12:11;;;;;;;24.77;14.35;;;6.30;99.90;;;;;;4952154;28;20074;-44
2021/12/19 09:14:37;;;;;;;24.63;15.18;;;6.40;99.90;;;;;;4951752;29;20118;-48
2021/12/19 09:17:03;;;;;;;26.60;14.70;;;6.40;99.90;;;;;;4952600;28;20023;-48
2021/12/19 09:19:29;;;;;;;23.77;14.32;;;6.40;99.90;;;;;;4952789;28;20031;-49
2021/12/19 09:21:54;;;;;;;30.20;15.93;;;6.50;99.90;;;;;;4952820;28;20491;-48
2021/12/19 09:24:20;;;;;;;28.27;15.80;;;6.40;99.90;;;;;;4952811;29;20488;-46
2021/12/19 09:26:46;;;;;;;29.92;15.82;;;6.50;99.90;;;;;;4952976;28;20100;-49
2021/12/19 09:29:12;;;;;;;27.70;15.98;;;6.50;99.90;;;;;;4952703;29;20027;-50
2021/12/19 09:31:37;;;;;;;28.48;15.00;;;6.60;99.90;;;;;;4952982;29;20078;-45
2021/12/19 09:34:03;;;;;;;31.35;16.58;;;6.60;99.90;;;;;;4952755;29;20074;-50
2021/12/19 09:36:29;;;;;;;32.95;17.02;;;6.60;99.90;;;;;;4952878;28;20031;-51
2021/12/19 09:38:55;;;;;;;28.25;15.30;;;6.70;99.90;;;;;;4952873;28;20127;-46
2021/12/19 09:41:29;;;;;;;27.13;16.50;;;6.70;99.90;;;;;;4952770;29;20015;-46
2021/12/19 09:44:02;;;;;;;31.50;16.55;;;6.70;99.90;;;;;;4954227;28;20031;-46
2021/12/19 09:46:30;;;;;;;30.75;17.65;;;6.70;99.90;;;;;;4956558;28;20510;-44
2021/12/19 09:48:56;;;;;;;34.15;17.52;;;6.80;99.90;;;;;;4956382;28;20027;-44
2021/12/19 09:51:22;;;;;;;33.53;16.45;;;6.80;99.90;;;;;;4956387;28;20023;-45
2021/12/19 09:53:47;;;;;;;33.45;16.90;;;6.80;99.90;;;;;;4956365;29;20094;-43
2021/12/19 09:56:13;;;;;;;32.60;17.45;;;6.80;99.90;;;;;;4956088;29;20071;-44
2021/12/19 09:58:40;;;;;;;31.50;16.58;;;6.90;99.90;;;;;;4955378;28;20030;-47
2021/12/19 10:01:08;;;;;;;32.65;17.90;;;6.90;99.90;;;;;;4955102;28;20061;-42
2021/12/19 10:03:35;;;;;;;27.70;15.18;;;6.80;99.90;;;;;;4955629;28;20038;-46
2021/12/19 10:06:22;;;;;;;33.03;18.10;;;6.90;99.90;;;;;;4955340;28;20550;-47
2021/12/19 10:09:06;;;;;;;34.85;17.40;;;6.90;99.90;;;;;;4945911;29;20066;-43
2021/12/19 10:11:45;;;;;;;30.55;17.55;;;7.10;99.90;;;;;;4956071;28;20031;-44
2021/12/19 10:14:34;;;;;;;33.33;19.60;;;7.10;99.90;;;;;;4950780;29;20035;-47
2021/12/19 10:17:06;;;;;;;33.33;17.90;;;7.10;99.90;;;;;;4936577;29;20067;-46
2021/12/19 10:19:53;;;;;;;35.08;18.40;;;7.10;99.90;;;;;;4939740;28;20474;-47
2021/12/19 10:22:27;;;;;;;27.70;16.05;;;7.20;99.90;;;;;;4954666;28;20078;-44
2021/12/19 10:24:55;;;;;;;28.90;16.85;;;7.20;99.90;;;;;;4955446;28;20123;-44
2021/12/19 10:27:39;;;;;;;30.67;17.70;;;7.20;99.90;;;;;;4955088;28;20035;-44
2021/12/19 10:30:24;;;;;;;35.17;18.85;;;7.30;99.90;;;;;;4952582;28;20027;-43
2021/12/19 10:33:13;;;;;;;32.63;18.07;;;7.30;99.90;;;;;;4950219;29;20163;-51
2021/12/19 10:35:47;;;;;;;30.25;16.90;;;7.30;99.90;;;;;;4956362;28;20038;-50
2021/12/19 10:38:27;;;;;;;33.88;18.17;;;7.40;99.90;;;;;;4953785;28;20388;-50
2021/12/19 10:41:10;;;;;;;34.33;18.15;;;7.40;99.90;;;;;;4953356;28;20031;-48
2021/12/19 10:43:46;;;;;;;29.85;16.15;;;7.50;99.90;;;;;;4952088;28;20050;-46
2021/12/19 10:46:12;;;;;;;34.42;18.30;;;7.50;99.90;;;;;;4954551;28;20436;-44
2021/12/19 10:48:39;;;;;;;27.15;16.10;;;7.40;99.90;;;;;;4954618;28;20031;-45
2021/12/19 10:51:15;;;;;;;30.90;17.45;;;7.50;99.90;;;;;;4952479;28;20285;-46
2021/12/19 10:53:55;;;;;;;31.73;17.00;;;7.60;99.90;;;;;;4954422;28;20024;-50
2021/12/19 10:56:29;;;;;;;30.35;15.57;;;7.60;99.90;;;;;;4953131;28;20484;-44
2021/12/19 10:59:01;;;;;;;34.70;17.33;;;7.60;99.90;;;;;;4954300;28;20036;-49
2021/12/19 11:01:29;;;;;;;33.38;16.63;;;7.60;99.90;;;;;;4953898;28;20444;-47
2021/12/19 11:04:15;;;;;;;28.75;15.88;;;7.60;99.90;;;;;;4953647;28;20100;-49
2021/12/19 11:06:46;;;;;;;27.25;15.77;;;7.60;99.90;;;;;;4954272;28;20031;-55
2021/12/19 11:09:26;;;;;;;27.92;15.52;;;7.70;99.90;;;;;;4951505;28;20032;-51
2021/12/19 11:12:00;;;;;;;31.25;17.02;;;7.70;99.90;;;;;;4934685;28;20032;-53
2021/12/19 11:14:34;;;;;;;29.98;15.40;;;7.80;99.90;;;;;;4953661;28;20070;-48
2021/12/19 11:17:02;;;;;;;21.65;13.68;;;7.80;99.90;;;;;;4953724;28;20475;-47
2021/12/19 11:19:29;;;;;;;23.27;14.00;;;7.80;99.90;;;;;;4953418;28;20039;-45
2021/12/19 11:21:55;;;;;;;23.90;13.85;;;7.90;99.90;;;;;;4952967;28;20035;-45
2021/12/19 11:24:22;;;;;;;27.50;16.38;;;7.80;99.90;;;;;;4953726;29;20050;-46
2021/12/19 11:26:51;;;;;;;24.15;15.00;;;7.80;99.90;;;;;;4953471;28;20035;-48
2021/12/19 11:29:18;;;;;;;24.13;14.40;;;7.90;99.90;;;;;;4952064;28;20027;-51
2021/12/19 11:31:47;;;;;;;23.20;14.55;;;7.90;99.90;;;;;;4952463;28;20435;-46
2021/12/19 11:34:21;;;;;;;24.70;12.93;;;8.00;99.90;;;;;;4953088;28;20484;-47
2021/12/19 11:37:09;;;;;;;24.63;13.40;;;8.10;99.90;;;;;;4953217;28;20114;-57
2021/12/19 11:39:37;;;;;;;23.80;12.63;;;8.10;99.90;;;;;;4952823;28;20037;-50
2021/12/19 11:42:19;;;;;;;20.52;12.88;;;8.20;99.90;;;;;;4951148;28;20032;-49
2021/12/19 11:47:36;;;;;;;20.05;12.32;;;8.10;99.90;;;;;;4952085;28;20065;-50
2021/12/19 11:50:25;;;;;;;18.08;10.85;;;8.10;99.90;;;;;;4952314;28;20031;-52
2021/12/19 11:52:54;;;;;;;19.58;12.70;;;8.10;99.90;;;;;;4951688;29;20063;-48
2021/12/19 11:55:22;;;;;;;17.27;11.23;;;8.20;99.90;;;;;;4951838;28;20031;-50
2021/12/19 11:58:08;;;;;;;18.38;12.02;;;8.20;99.90;;;;;;4953561;28;20035;-53
2021/12/19 12:00:43;;;;;;;;;;;8.20;99.90;;;;;;4951881;28;20039;-52
2021/12/19 12:03:42;;;;;;;19.27;12.30;;;8.10;99.90;;;;;;4952156;28;20378;-47
2021/12/19 12:06:15;;;;;;;19.20;12.40;;;8.10;99.90;;;;;;4969479;28;20034;-52
2021/12/19 12:09:10;;;;;;;18.35;11.57;;;8.20;99.90;;;;;;4969249;28;20062;-55
2021/12/19 12:12:00;;;;;;;20.98;12.95;;;8.20;99.90;;;;;;4949447;29;20090;-60
2021/12/19 12:14:39;;;;;;;19.35;12.35;;;8.20;99.90;;;;;;4950770;29;20439;-51
2021/12/19 12:17:10;;;;;;;18.83;11.80;;;8.20;99.90;;;;;;4959822;28;20038;-55
2021/12/19 12:19:54;;;;;;;17.90;12.05;;;8.20;99.90;;;;;;4951250;28;20031;-48
2021/12/19 12:22:26;;;;;;;19.30;10.73;;;8.30;99.90;;;;;;4951879;28;20047;-47
2021/12/19 12:25:24;;;;;;;16.92;11.20;;;8.20;99.90;;;;;;4957768;28;20027;-56
2021/12/19 12:27:54;;;;;;;19.50;11.10;;;8.20;99.90;;;;;;4956221;28;20031;-56
2021/12/19 12:30:31;;;;;;;19.23;11.98;;;8.30;99.90;;;;;;4952521;28;20031;-49
2021/12/19 12:33:00;;;;;;;18.02;12.05;;;8.30;99.90;;;;;;4951637;28;20031;-50
2021/12/19 12:35:28;;;;;;;19.73;11.02;;;8.30;99.90;;;;;;4952303;28;20039;-49
2021/12/19 12:37:55;;;;;;;22.98;12.70;;;8.30;99.90;;;;;;4952174;28;20050;-49
2021/12/19 12:40:31;;;;;;;19.83;11.35;;;8.30;99.90;;;;;;4951440;28;20026;-50
2021/12/19 12:43:10;;;;;;;16.65;11.48;;;8.30;99.90;;;;;;4954134;28;20503;-46
2021/12/19 12:45:50;;;;;;;20.63;12.65;;;8.30;99.90;;;;;;4950264;29;20091;-47
2021/12/19 12:48:47;;;;;;;19.77;11.80;;;8.20;99.90;;;;;;4951895;28;20380;-49
2021/12/19 12:51:19;;;;;;;19.88;12.95;;;8.20;99.90;;;;;;4944838;29;20122;-48
2021/12/19 12:53:47;;;;;;;18.55;12.02;;;8.30;99.90;;;;;;4952000;28;20032;-50
2021/12/19 12:56:16;;;;;;;17.70;11.02;;;8.30;99.90;;;;;;4951730;28;20031;-48
2021/12/19 12:58:49;;;;;;;19.65;11.63;;;8.20;99.90;;;;;;4952247;28;20027;-47
2021/12/19 13:01:18;;;;;;;18.98;11.82;;;8.20;99.90;;;;;;4941422;29;20106;-51
2021/12/19 13:04:16;;;;;;;18.38;11.55;;;8.30;99.90;;;;;;4954541;28;20024;-53
2021/12/19 13:06:44;;;;;;;20.38;12.93;;;8.40;99.90;;;;;;4945119;29;20118;-50
2021/12/19 13:09:17;;;;;;;21.50;13.13;;;8.40;99.90;;;;;;4952311;28;20051;-43
2021/12/19 13:11:45;;;;;;;20.70;12.52;;;8.40;99.90;;;;;;4945018;28;20038;-52
2021/12/19 13:14:13;;;;;;;18.80;12.57;;;8.30;99.90;;;;;;4953142;28;20074;-54
2021/12/19 13:16:53;;;;;;;21.33;13.23;;;8.40;99.90;;;;;;4955572;28;20058;-50
2021/12/19 13:19:40;;;;;;;19.85;12.65;;;8.40;99.90;;;;;;4956907;28;20069;-52
2021/12/19 13:22:10;;;;;;;20.15;10.93;;;8.40;99.90;;;;;;4957880;28;20059;-48
2021/12/19 13:24:38;;;;;;;19.48;11.85;;;8.50;99.90;;;;;;4955029;28;20042;-49
2021/12/19 13:27:09;;;;;;;21.58;13.35;;;8.40;99.90;;;;;;4955229;28;20085;-47
2021/12/19 13:29:37;;;;;;;21.38;13.32;;;8.40;99.90;;;;;;4954592;28;20126;-49
2021/12/19 13:32:23;;;;;;;22.63;13.77;;;8.40;99.90;;;;;;4952995;28;20042;-50
2021/12/19 13:34:50;;;;;;;19.83;12.05;;;8.40;99.90;;;;;;4954478;29;20102;-58
2021/12/19 13:37:16;;;;;;;18.80;12.25;;;8.30;99.90;;;;;;4954472;28;20020;-50
2021/12/19 13:39:45;;;;;;;22.02;12.88;;;8.40;99.90;;;;;;4953723;28;20035;-58
2021/12/19 13:42:14;;;;;;;21.00;12.88;;;8.30;99.90;;;;;;4955477;28;20023;-54
2021/12/19 13:44:41;;;;;;;21.08;13.35;;;8.20;99.90;;;;;;4939843;29;20054;-58
2021/12/19 13:47:25;;;;;;;19.80;12.82;;;8.30;99.90;;;;;;4954924;28;20081;-56
2021/12/19 13:49:50;;;;;;;16.58;12.15;;;8.30;99.90;;;;;;4954076;28;20043;-51
2021/12/19 13:52:18;;;;;;;17.40;11.93;;;8.20;99.90;;;;;;4954965;28;20376;-54